sensor_id;sensor_type;location;lat;lon;timestamp;pressure;altitude;pressure_sealevel;temperature;humidity
67803;BME280;72185;51.378;-1.342;2023-12-28T00:00:19;98912.31;;;20.63;35.90
67803;BME280;72185;51.378;-1.342;2023-12-28T00:02:44;98915.38;;;20.79;35.44
67803;BME280;72185;51.378;-1.342;2023-12-28T00:05:09;98916.33;;;20.84;35.64
67803;BME280;72185;51.378;-1.342;2023-12-28T00:07:35;98931.19;;;20.84;35.58
67803;BME280;72185;51.378;-1.342;2023-12-28T00:10:01;98925.11;;;21.05;35.28
67803;BME280;72185;51.378;-1.342;2023-12-28T00:12:26;98955.69;;;20.73;35.76
67803;BME280;72185;51.378;-1.342;2023-12-28T00:14:51;98948.19;;;21.08;35.32
67803;BME280;72185;51.378;-1.342;2023-12-28T00:17:17;98953.37;;;21.20;34.86
67803;BME280;72185;51.378;-1.342;2023-12-28T00:19:42;98923.66;;;21.35;35.29
67803;BME280;72185;51.378;-1.342;2023-12-28T00:22:08;98935.42;;;21.11;36.07
67803;BME280;72185;51.378;-1.342;2023-12-28T00:24:33;98952.77;;;21.21;35.09
67803;BME280;72185;51.378;-1.342;2023-12-28T00:26:59;98950.34;;;21.12;35.51
67803;BME280;72185;51.378;-1.342;2023-12-28T00:29:24;98956.43;;;21.18;35.75
67803;BME280;72185;51.378;-1.342;2023-12-28T00:31:50;98955.17;;;21.07;35.74
67803;BME280;72185;51.378;-1.342;2023-12-28T00:34:15;98943.58;;;21.22;35.59
67803;BME280;72185;51.378;-1.342;2023-12-28T00:36:41;98943.21;;;21.25;35.66
67803;BME280;72185;51.378;-1.342;2023-12-28T00:39:06;98954.39;;;21.64;35.34
67803;BME280;72185;51.378;-1.342;2023-12-28T00:41:31;98956.37;;;21.61;35.74
67803;BME280;72185;51.378;-1.342;2023-12-28T00:43:57;98955.88;;;21.25;36.18
67803;BME280;72185;51.378;-1.342;2023-12-28T00:46:22;98952.78;;;21.37;36.13
67803;BME280;72185;51.378;-1.342;2023-12-28T00:48:48;98954.44;;;21.59;35.90
67803;BME280;72185;51.378;-1.342;2023-12-28T00:51:14;98949.96;;;20.57;37.10
67803;BME280;72185;51.378;-1.342;2023-12-28T00:53:39;98956.17;;;21.70;36.18
67803;BME280;72185;51.378;-1.342;2023-12-28T00:56:04;98956.41;;;21.51;36.08
67803;BME280;72185;51.378;-1.342;2023-12-28T00:58:30;98947.30;;;21.57;36.43
67803;BME280;72185;51.378;-1.342;2023-12-28T01:00:55;98950.37;;;21.23;36.37
67803;BME280;72185;51.378;-1.342;2023-12-28T01:03:21;98939.01;;;21.68;36.19
67803;BME280;72185;51.378;-1.342;2023-12-28T01:05:46;98950.48;;;21.06;37.17
67803;BME280;72185;51.378;-1.342;2023-12-28T01:08:11;98963.19;;;21.53;36.31
67803;BME280;72185;51.378;-1.342;2023-12-28T01:10:37;98962.95;;;21.57;36.24
67803;BME280;72185;51.378;-1.342;2023-12-28T01:13:03;98961.25;;;21.22;37.01
67803;BME280;72185;51.378;-1.342;2023-12-28T01:15:28;98976.50;;;20.91;37.49
67803;BME280;72185;51.378;-1.342;2023-12-28T01:17:53;98976.11;;;21.16;36.99
67803;BME280;72185;51.378;-1.342;2023-12-28T01:20:18;98965.58;;;21.46;36.59
67803;BME280;72185;51.378;-1.342;2023-12-28T01:22:44;98969.19;;;21.01;37.30
67803;BME280;72185;51.378;-1.342;2023-12-28T01:25:09;98953.02;;;21.49;36.79
67803;BME280;72185;51.378;-1.342;2023-12-28T01:27:35;98984.45;;;21.42;36.63
67803;BME280;72185;51.378;-1.342;2023-12-28T01:30:00;98980.90;;;21.15;37.11
67803;BME280;72185;51.378;-1.342;2023-12-28T01:32:26;98981.90;;;21.66;36.68
67803;BME280;72185;51.378;-1.342;2023-12-28T01:34:52;98985.14;;;21.58;36.54
67803;BME280;72185;51.378;-1.342;2023-12-28T01:37:17;98986.53;;;21.31;36.49
67803;BME280;72185;51.378;-1.342;2023-12-28T01:39:42;98975.68;;;21.74;36.54
67803;BME280;72185;51.378;-1.342;2023-12-28T01:42:09;98980.40;;;21.91;36.36
67803;BME280;72185;51.378;-1.342;2023-12-28T01:44:33;98977.52;;;21.06;37.30
67803;BME280;72185;51.378;-1.342;2023-12-28T01:46:59;98976.73;;;21.35;36.89
67803;BME280;72185;51.378;-1.342;2023-12-28T01:49:24;98980.35;;;21.48;36.76
67803;BME280;72185;51.378;-1.342;2023-12-28T01:51:49;98976.01;;;20.90;37.43
67803;BME280;72185;51.378;-1.342;2023-12-28T01:54:15;98970.68;;;21.38;37.24
67803;BME280;72185;51.378;-1.342;2023-12-28T01:56:40;98971.70;;;21.61;37.39
67803;BME280;72185;51.378;-1.342;2023-12-28T01:59:05;98983.58;;;21.65;36.93
67803;BME280;72185;51.378;-1.342;2023-12-28T02:01:31;98981.84;;;21.71;36.63
67803;BME280;72185;51.378;-1.342;2023-12-28T02:03:57;98983.89;;;21.59;36.74
67803;BME280;72185;51.378;-1.342;2023-12-28T02:06:23;98987.72;;;21.54;36.82
67803;BME280;72185;51.378;-1.342;2023-12-28T02:08:48;98989.63;;;21.13;37.43
67803;BME280;72185;51.378;-1.342;2023-12-28T02:11:12;98992.86;;;21.57;36.95
67803;BME280;72185;51.378;-1.342;2023-12-28T02:13:38;99000.06;;;21.27;37.56
67803;BME280;72185;51.378;-1.342;2023-12-28T02:16:09;98998.60;;;21.03;38.18
67803;BME280;72185;51.378;-1.342;2023-12-28T02:18:34;99001.77;;;21.36;37.50
67803;BME280;72185;51.378;-1.342;2023-12-28T02:20:56;99010.27;;;20.88;37.80
67803;BME280;72185;51.378;-1.342;2023-12-28T02:23:20;99012.98;;;20.99;38.71
67803;BME280;72185;51.378;-1.342;2023-12-28T02:25:46;99019.94;;;21.06;38.40
67803;BME280;72185;51.378;-1.342;2023-12-28T02:28:11;99023.03;;;21.43;37.61
67803;BME280;72185;51.378;-1.342;2023-12-28T02:30:36;99038.38;;;20.69;38.58
67803;BME280;72185;51.378;-1.342;2023-12-28T02:33:08;99042.33;;;20.99;38.34
67803;BME280;72185;51.378;-1.342;2023-12-28T02:35:31;99034.37;;;21.12;38.04
67803;BME280;72185;51.378;-1.342;2023-12-28T02:37:55;99027.82;;;21.24;38.00
67803;BME280;72185;51.378;-1.342;2023-12-28T02:40:19;99024.73;;;20.89;38.19
67803;BME280;72185;51.378;-1.342;2023-12-28T02:42:44;99023.44;;;21.00;37.94
67803;BME280;72185;51.378;-1.342;2023-12-28T02:45:09;99025.17;;;21.05;38.44
67803;BME280;72185;51.378;-1.342;2023-12-28T02:47:35;99024.56;;;20.97;38.62
67803;BME280;72185;51.378;-1.342;2023-12-28T02:50:00;99024.50;;;21.05;38.51
67803;BME280;72185;51.378;-1.342;2023-12-28T02:52:26;99019.36;;;21.09;38.39
67803;BME280;72185;51.378;-1.342;2023-12-28T02:54:51;99023.94;;;21.01;38.24
67803;BME280;72185;51.378;-1.342;2023-12-28T02:57:16;99024.52;;;20.91;38.26
67803;BME280;72185;51.378;-1.342;2023-12-28T02:59:42;99024.24;;;21.27;38.05
67803;BME280;72185;51.378;-1.342;2023-12-28T03:02:07;99014.71;;;21.44;37.71
67803;BME280;72185;51.378;-1.342;2023-12-28T03:04:33;99020.24;;;21.35;37.94
67803;BME280;72185;51.378;-1.342;2023-12-28T03:06:58;99022.25;;;21.56;37.55
67803;BME280;72185;51.378;-1.342;2023-12-28T03:09:24;99022.19;;;21.04;38.02
67803;BME280;72185;51.378;-1.342;2023-12-28T03:11:49;99017.36;;;21.04;37.96
67803;BME280;72185;51.378;-1.342;2023-12-28T03:14:15;99015.18;;;21.40;37.44
67803;BME280;72185;51.378;-1.342;2023-12-28T03:16:40;99020.24;;;21.24;38.20
67803;BME280;72185;51.378;-1.342;2023-12-28T03:19:05;99038.06;;;20.82;38.27
67803;BME280;72185;51.378;-1.342;2023-12-28T03:21:31;99023.78;;;21.57;37.67
67803;BME280;72185;51.378;-1.342;2023-12-28T03:23:56;99033.50;;;21.16;37.88
67803;BME280;72185;51.378;-1.342;2023-12-28T03:26:22;99038.52;;;21.05;38.14
67803;BME280;72185;51.378;-1.342;2023-12-28T03:28:47;99044.25;;;21.04;38.07
67803;BME280;72185;51.378;-1.342;2023-12-28T03:31:13;99033.89;;;21.48;37.79
67803;BME280;72185;51.378;-1.342;2023-12-28T03:33:38;99035.13;;;21.43;37.59
67803;BME280;72185;51.378;-1.342;2023-12-28T03:36:04;99036.42;;;21.15;37.98
67803;BME280;72185;51.378;-1.342;2023-12-28T03:38:29;99044.59;;;21.31;37.57
67803;BME280;72185;51.378;-1.342;2023-12-28T03:40:54;99036.64;;;21.21;38.02
67803;BME280;72185;51.378;-1.342;2023-12-28T03:43:20;99039.48;;;20.85;38.14
67803;BME280;72185;51.378;-1.342;2023-12-28T03:45:45;99053.36;;;20.54;38.79
67803;BME280;72185;51.378;-1.342;2023-12-28T03:48:11;99056.76;;;21.45;37.96
67803;BME280;72185;51.378;-1.342;2023-12-28T03:50:36;99059.69;;;21.32;37.74
67803;BME280;72185;51.378;-1.342;2023-12-28T03:53:02;99066.64;;;21.30;37.93
67803;BME280;72185;51.378;-1.342;2023-12-28T03:55:27;99059.09;;;21.25;38.03
67803;BME280;72185;51.378;-1.342;2023-12-28T03:57:53;99054.98;;;21.43;38.02
67803;BME280;72185;51.378;-1.342;2023-12-28T04:00:18;99065.74;;;21.60;37.77
67803;BME280;72185;51.378;-1.342;2023-12-28T04:02:44;99061.66;;;21.43;37.57
67803;BME280;72185;51.378;-1.342;2023-12-28T04:05:09;99057.19;;;21.38;37.66
67803;BME280;72185;51.378;-1.342;2023-12-28T04:07:34;99061.31;;;21.08;38.30
67803;BME280;72185;51.378;-1.342;2023-12-28T04:10:00;99055.67;;;21.63;37.71
67803;BME280;72185;51.378;-1.342;2023-12-28T04:12:25;99055.11;;;21.13;38.06
67803;BME280;72185;51.378;-1.342;2023-12-28T04:14:51;99058.82;;;21.19;37.95
67803;BME280;72185;51.378;-1.342;2023-12-28T04:17:16;99050.15;;;21.14;37.68
67803;BME280;72185;51.378;-1.342;2023-12-28T04:19:42;99057.23;;;21.42;37.50
67803;BME280;72185;51.378;-1.342;2023-12-28T04:22:07;99061.12;;;21.63;37.62
67803;BME280;72185;51.378;-1.342;2023-12-28T04:24:33;99063.64;;;21.41;37.53
67803;BME280;72185;51.378;-1.342;2023-12-28T04:26:58;99069.88;;;21.60;37.32
67803;BME280;72185;51.378;-1.342;2023-12-28T04:29:23;99073.92;;;21.48;37.85
67803;BME280;72185;51.378;-1.342;2023-12-28T04:31:49;99082.04;;;21.55;37.78
67803;BME280;72185;51.378;-1.342;2023-12-28T04:34:14;99075.27;;;21.40;37.62
67803;BME280;72185;51.378;-1.342;2023-12-28T04:36:40;99082.23;;;21.72;37.56
67803;BME280;72185;51.378;-1.342;2023-12-28T04:39:05;99073.44;;;21.77;37.44
67803;BME280;72185;51.378;-1.342;2023-12-28T04:41:30;99080.43;;;21.85;37.28
67803;BME280;72185;51.378;-1.342;2023-12-28T04:43:56;99098.11;;;21.23;37.76
67803;BME280;72185;51.378;-1.342;2023-12-28T04:46:21;99093.28;;;21.32;37.69
67803;BME280;72185;51.378;-1.342;2023-12-28T04:48:47;99093.74;;;21.51;37.37
67803;BME280;72185;51.378;-1.342;2023-12-28T04:51:13;99084.78;;;21.80;37.33
67803;BME280;72185;51.378;-1.342;2023-12-28T04:53:39;99087.97;;;21.30;37.62
67803;BME280;72185;51.378;-1.342;2023-12-28T04:56:04;99083.21;;;21.35;37.64
67803;BME280;72185;51.378;-1.342;2023-12-28T04:58:29;99090.02;;;21.24;37.72
67803;BME280;72185;51.378;-1.342;2023-12-28T05:00:54;99084.29;;;21.46;37.52
67803;BME280;72185;51.378;-1.342;2023-12-28T05:03:19;99085.31;;;21.47;37.52
67803;BME280;72185;51.378;-1.342;2023-12-28T05:05:45;99075.75;;;21.17;37.56
67803;BME280;72185;51.378;-1.342;2023-12-28T05:08:10;99086.04;;;21.63;37.54
67803;BME280;72185;51.378;-1.342;2023-12-28T05:10:36;99075.80;;;21.53;37.64
67803;BME280;72185;51.378;-1.342;2023-12-28T05:13:01;99089.02;;;21.42;37.44
67803;BME280;72185;51.378;-1.342;2023-12-28T05:15:27;99087.73;;;21.71;37.04
67803;BME280;72185;51.378;-1.342;2023-12-28T05:17:52;99097.63;;;22.07;36.86
67803;BME280;72185;51.378;-1.342;2023-12-28T05:20:18;99094.87;;;21.72;37.02
67803;BME280;72185;51.378;-1.342;2023-12-28T05:22:43;99104.52;;;21.55;37.25
67803;BME280;72185;51.378;-1.342;2023-12-28T05:25:08;99106.05;;;21.48;37.37
67803;BME280;72185;51.378;-1.342;2023-12-28T05:27:34;99106.72;;;22.18;36.80
67803;BME280;72185;51.378;-1.342;2023-12-28T05:29:59;99112.56;;;21.93;37.08
67803;BME280;72185;51.378;-1.342;2023-12-28T05:32:25;99109.53;;;21.88;37.15
67803;BME280;72185;51.378;-1.342;2023-12-28T05:34:50;99102.33;;;21.93;37.08
67803;BME280;72185;51.378;-1.342;2023-12-28T05:37:16;99102.47;;;21.58;37.17
67803;BME280;72185;51.378;-1.342;2023-12-28T05:39:41;99100.00;;;22.00;37.00
67803;BME280;72185;51.378;-1.342;2023-12-28T05:42:07;99105.02;;;21.77;36.87
67803;BME280;72185;51.378;-1.342;2023-12-28T05:44:32;99106.47;;;21.82;37.12
67803;BME280;72185;51.378;-1.342;2023-12-28T05:46:58;99098.51;;;21.71;37.20
67803;BME280;72185;51.378;-1.342;2023-12-28T05:49:23;99108.23;;;21.54;37.18
67803;BME280;72185;51.378;-1.342;2023-12-28T05:51:48;99105.34;;;21.84;37.15
67803;BME280;72185;51.378;-1.342;2023-12-28T05:54:14;99116.22;;;21.40;37.36
67803;BME280;72185;51.378;-1.342;2023-12-28T05:56:39;99115.15;;;21.31;37.61
67803;BME280;72185;51.378;-1.342;2023-12-28T05:59:05;99115.29;;;21.76;37.19
67803;BME280;72185;51.378;-1.342;2023-12-28T06:01:30;99123.53;;;21.82;37.11
67803;BME280;72185;51.378;-1.342;2023-12-28T06:03:56;99141.69;;;21.79;37.10
67803;BME280;72185;51.378;-1.342;2023-12-28T06:06:21;99140.81;;;21.47;37.17
67803;BME280;72185;51.378;-1.342;2023-12-28T06:08:47;99149.61;;;21.49;37.12
67803;BME280;72185;51.378;-1.342;2023-12-28T06:11:12;99146.32;;;21.89;36.96
67803;BME280;72185;51.378;-1.342;2023-12-28T06:13:38;99151.73;;;21.95;36.86
67803;BME280;72185;51.378;-1.342;2023-12-28T06:16:04;99154.68;;;21.95;36.84
67803;BME280;72185;51.378;-1.342;2023-12-28T06:18:28;99157.83;;;21.47;37.09
67803;BME280;72185;51.378;-1.342;2023-12-28T06:20:54;99156.30;;;21.67;37.20
67803;BME280;72185;51.378;-1.342;2023-12-28T06:23:20;99144.20;;;22.05;36.62
67803;BME280;72185;51.378;-1.342;2023-12-28T06:25:45;99148.46;;;21.62;36.87
67803;BME280;72185;51.378;-1.342;2023-12-28T06:28:10;99165.71;;;21.51;36.96
67803;BME280;72185;51.378;-1.342;2023-12-28T06:30:36;99158.93;;;21.66;36.74
67803;BME280;72185;51.378;-1.342;2023-12-28T06:33:01;99169.43;;;21.90;36.79
67803;BME280;72185;51.378;-1.342;2023-12-28T06:35:27;99174.83;;;21.78;36.97
67803;BME280;72185;51.378;-1.342;2023-12-28T06:37:52;99175.05;;;21.63;37.11
67803;BME280;72185;51.378;-1.342;2023-12-28T06:40:17;99170.48;;;21.69;37.00
67803;BME280;72185;51.378;-1.342;2023-12-28T06:42:43;99172.89;;;21.92;36.68
67803;BME280;72185;51.378;-1.342;2023-12-28T06:45:09;99176.27;;;21.61;36.74
67803;BME280;72185;51.378;-1.342;2023-12-28T06:47:34;99171.02;;;21.95;36.70
67803;BME280;72185;51.378;-1.342;2023-12-28T06:49:59;99177.51;;;21.60;37.18
67803;BME280;72185;51.378;-1.342;2023-12-28T06:52:24;99190.89;;;21.51;36.86
67803;BME280;72185;51.378;-1.342;2023-12-28T06:54:51;99194.61;;;21.63;36.77
67803;BME280;72185;51.378;-1.342;2023-12-28T06:57:15;99188.94;;;21.83;36.80
67803;BME280;72185;51.378;-1.342;2023-12-28T06:59:41;99190.75;;;21.48;36.92
67803;BME280;72185;51.378;-1.342;2023-12-28T07:02:06;99194.74;;;21.44;36.94
67803;BME280;72185;51.378;-1.342;2023-12-28T07:04:32;99196.63;;;21.86;36.84
67803;BME280;72185;51.378;-1.342;2023-12-28T07:06:57;99194.03;;;21.42;36.99
67803;BME280;72185;51.378;-1.342;2023-12-28T07:09:22;99196.95;;;21.58;36.80
67803;BME280;72185;51.378;-1.342;2023-12-28T07:11:48;99205.43;;;21.29;37.17
67803;BME280;72185;51.378;-1.342;2023-12-28T07:14:13;99210.31;;;21.51;37.26
67803;BME280;72185;51.378;-1.342;2023-12-28T07:16:39;99216.14;;;21.65;37.16
67803;BME280;72185;51.378;-1.342;2023-12-28T07:19:04;99212.44;;;21.39;37.21
67803;BME280;72185;51.378;-1.342;2023-12-28T07:21:29;99213.21;;;21.83;36.90
67803;BME280;72185;51.378;-1.342;2023-12-28T07:23:55;99211.25;;;21.72;37.04
67803;BME280;72185;51.378;-1.342;2023-12-28T07:26:20;99214.61;;;21.38;37.07
67803;BME280;72185;51.378;-1.342;2023-12-28T07:28:46;99208.36;;;21.25;37.36
67803;BME280;72185;51.378;-1.342;2023-12-28T07:31:11;99198.51;;;21.59;36.88
67803;BME280;72185;51.378;-1.342;2023-12-28T07:33:37;99196.51;;;21.56;36.92
67803;BME280;72185;51.378;-1.342;2023-12-28T07:36:02;99198.57;;;21.32;37.22
67803;BME280;72185;51.378;-1.342;2023-12-28T07:38:27;99210.20;;;21.79;36.96
67803;BME280;72185;51.378;-1.342;2023-12-28T07:40:53;99211.08;;;21.71;36.67
67803;BME280;72185;51.378;-1.342;2023-12-28T07:43:18;99208.76;;;21.88;36.76
67803;BME280;72185;51.378;-1.342;2023-12-28T07:45:44;99209.44;;;21.80;36.85
67803;BME280;72185;51.378;-1.342;2023-12-28T07:48:09;99220.52;;;21.86;36.78
67803;BME280;72185;51.378;-1.342;2023-12-28T07:50:35;99222.42;;;21.86;36.70
67803;BME280;72185;51.378;-1.342;2023-12-28T07:53:00;99218.15;;;21.44;36.87
67803;BME280;72185;51.378;-1.342;2023-12-28T07:55:26;99236.11;;;21.66;36.94
67803;BME280;72185;51.378;-1.342;2023-12-28T07:57:51;99222.20;;;21.42;36.89
67803;BME280;72185;51.378;-1.342;2023-12-28T08:00:16;99209.62;;;21.84;36.66
67803;BME280;72185;51.378;-1.342;2023-12-28T08:02:42;99202.99;;;21.64;36.91
67803;BME280;72185;51.378;-1.342;2023-12-28T08:05:08;99208.60;;;21.78;36.74
67803;BME280;72185;51.378;-1.342;2023-12-28T08:07:33;99211.67;;;21.60;37.03
67803;BME280;72185;51.378;-1.342;2023-12-28T08:09:58;99207.96;;;21.65;36.98
67803;BME280;72185;51.378;-1.342;2023-12-28T08:12:24;99215.22;;;21.52;36.76
67803;BME280;72185;51.378;-1.342;2023-12-28T08:14:49;99227.01;;;21.65;36.57
67803;BME280;72185;51.378;-1.342;2023-12-28T08:17:14;99230.82;;;21.57;36.58
67803;BME280;72185;51.378;-1.342;2023-12-28T08:19:40;99218.43;;;21.68;36.41
67803;BME280;72185;51.378;-1.342;2023-12-28T08:22:06;99224.40;;;21.78;36.65
67803;BME280;72185;51.378;-1.342;2023-12-28T08:24:31;99227.55;;;21.65;36.81
67803;BME280;72185;51.378;-1.342;2023-12-28T08:26:56;99225.38;;;21.85;36.63
67803;BME280;72185;51.378;-1.342;2023-12-28T08:29:22;99230.90;;;21.26;37.03
67803;BME280;72185;51.378;-1.342;2023-12-28T08:31:47;99232.42;;;21.46;36.73
67803;BME280;72185;51.378;-1.342;2023-12-28T08:34:13;99223.14;;;21.84;36.91
67803;BME280;72185;51.378;-1.342;2023-12-28T08:36:38;99232.23;;;21.53;36.70
67803;BME280;72185;51.378;-1.342;2023-12-28T08:39:04;99249.50;;;21.56;36.64
67803;BME280;72185;51.378;-1.342;2023-12-28T08:41:29;99252.60;;;21.65;36.86
67803;BME280;72185;51.378;-1.342;2023-12-28T08:43:55;99257.08;;;21.72;36.75
67803;BME280;72185;51.378;-1.342;2023-12-28T08:46:20;99259.95;;;21.46;37.03
67803;BME280;72185;51.378;-1.342;2023-12-28T08:48:46;99256.87;;;21.99;36.60
67803;BME280;72185;51.378;-1.342;2023-12-28T08:51:11;99259.10;;;21.52;36.93
67803;BME280;72185;51.378;-1.342;2023-12-28T08:53:36;99253.47;;;21.50;36.98
67803;BME280;72185;51.378;-1.342;2023-12-28T08:56:02;99255.14;;;21.80;36.64
67803;BME280;72185;51.378;-1.342;2023-12-28T08:58:27;99258.92;;;21.79;36.56
67803;BME280;72185;51.378;-1.342;2023-12-28T09:00:53;99255.09;;;21.68;36.72
67803;BME280;72185;51.378;-1.342;2023-12-28T09:03:19;99257.44;;;21.80;36.56
67803;BME280;72185;51.378;-1.342;2023-12-28T09:05:44;99260.41;;;21.61;36.84
67803;BME280;72185;51.378;-1.342;2023-12-28T09:08:09;99254.91;;;21.58;36.87
67803;BME280;72185;51.378;-1.342;2023-12-28T09:10:35;99256.00;;;21.58;36.87
67803;BME280;72185;51.378;-1.342;2023-12-28T09:13:00;99263.13;;;21.66;36.83
67803;BME280;72185;51.378;-1.342;2023-12-28T09:15:26;99263.18;;;21.65;36.79
67803;BME280;72185;51.378;-1.342;2023-12-28T09:17:51;99264.40;;;21.23;36.97
67803;BME280;72185;51.378;-1.342;2023-12-28T09:20:17;99267.57;;;21.64;36.82
67803;BME280;72185;51.378;-1.342;2023-12-28T09:22:42;99272.05;;;21.23;37.37
67803;BME280;72185;51.378;-1.342;2023-12-28T09:25:08;99266.22;;;20.93;37.33
67803;BME280;72185;51.378;-1.342;2023-12-28T09:27:34;99269.92;;;21.37;37.09
67803;BME280;72185;51.378;-1.342;2023-12-28T09:29:59;99266.41;;;21.19;37.06
67803;BME280;72185;51.378;-1.342;2023-12-28T09:32:24;99273.48;;;21.28;36.84
67803;BME280;72185;51.378;-1.342;2023-12-28T09:34:50;99269.33;;;21.74;36.59
67803;BME280;72185;51.378;-1.342;2023-12-28T09:37:15;99271.37;;;21.51;36.45
67803;BME280;72185;51.378;-1.342;2023-12-28T09:39:41;99267.55;;;21.63;36.57
67803;BME280;72185;51.378;-1.342;2023-12-28T09:42:17;99273.80;;;21.50;36.82
67803;BME280;72185;51.378;-1.342;2023-12-28T09:44:32;99281.18;;;21.60;36.61
67803;BME280;72185;51.378;-1.342;2023-12-28T09:46:57;99280.04;;;21.49;36.76
67803;BME280;72185;51.378;-1.342;2023-12-28T09:49:23;99279.97;;;21.32;36.56
67803;BME280;72185;51.378;-1.342;2023-12-28T09:51:48;99288.92;;;21.32;36.94
67803;BME280;72185;51.378;-1.342;2023-12-28T09:54:13;99282.97;;;21.43;36.70
67803;BME280;72185;51.378;-1.342;2023-12-28T09:56:40;99277.64;;;21.27;36.90
67803;BME280;72185;51.378;-1.342;2023-12-28T09:59:04;99269.52;;;21.65;36.72
67803;BME280;72185;51.378;-1.342;2023-12-28T10:01:30;99269.97;;;21.06;37.16
67803;BME280;72185;51.378;-1.342;2023-12-28T10:03:55;99269.27;;;21.38;36.22
67803;BME280;72185;51.378;-1.342;2023-12-28T10:06:21;99258.84;;;21.28;36.52
67803;BME280;72185;51.378;-1.342;2023-12-28T10:08:47;99262.52;;;21.17;36.26
67803;BME280;72185;51.378;-1.342;2023-12-28T10:11:12;99260.82;;;21.27;36.38
67803;BME280;72185;51.378;-1.342;2023-12-28T10:13:37;99260.24;;;21.35;36.12
67803;BME280;72185;51.378;-1.342;2023-12-28T10:16:03;99268.68;;;21.20;36.35
67803;BME280;72185;51.378;-1.342;2023-12-28T10:18:28;99266.13;;;21.57;36.74
67803;BME280;72185;51.378;-1.342;2023-12-28T10:20:54;99267.91;;;21.86;36.16
67803;BME280;72185;51.378;-1.342;2023-12-28T10:23:20;99265.87;;;21.17;36.90
67803;BME280;72185;51.378;-1.342;2023-12-28T10:25:44;99277.25;;;21.34;36.88
67803;BME280;72185;51.378;-1.342;2023-12-28T10:28:10;99271.09;;;21.32;36.92
67803;BME280;72185;51.378;-1.342;2023-12-28T10:30:35;99266.53;;;21.15;37.08
67803;BME280;72185;51.378;-1.342;2023-12-28T10:33:00;99268.69;;;20.95;37.06
67803;BME280;72185;51.378;-1.342;2023-12-28T10:35:26;99264.32;;;21.55;36.68
67803;BME280;72185;51.378;-1.342;2023-12-28T10:37:52;99262.85;;;21.03;37.34
67803;BME280;72185;51.378;-1.342;2023-12-28T10:40:17;99258.39;;;21.29;36.97
67803;BME280;72185;51.378;-1.342;2023-12-28T10:42:49;99258.87;;;21.09;37.03
67803;BME280;72185;51.378;-1.342;2023-12-28T10:45:10;99263.70;;;21.02;37.43
67803;BME280;72185;51.378;-1.342;2023-12-28T10:47:33;99265.63;;;20.92;37.13
67803;BME280;72185;51.378;-1.342;2023-12-28T10:50:02;99270.77;;;21.24;36.97
67803;BME280;72185;51.378;-1.342;2023-12-28T10:52:27;99257.61;;;20.99;36.87
67803;BME280;72185;51.378;-1.342;2023-12-28T10:54:57;99267.83;;;21.24;36.78
67803;BME280;72185;51.378;-1.342;2023-12-28T10:57:21;99263.39;;;21.18;36.57
67803;BME280;72185;51.378;-1.342;2023-12-28T10:59:46;99255.75;;;21.39;36.61
67803;BME280;72185;51.378;-1.342;2023-12-28T11:02:07;99253.22;;;20.89;36.83
67803;BME280;72185;51.378;-1.342;2023-12-28T11:04:37;99252.01;;;21.07;36.56
67803;BME280;72185;51.378;-1.342;2023-12-28T11:06:58;99258.25;;;20.93;36.72
67803;BME280;72185;51.378;-1.342;2023-12-28T11:09:22;99255.11;;;21.24;36.69
67803;BME280;72185;51.378;-1.342;2023-12-28T11:11:49;99246.99;;;21.37;36.59
67803;BME280;72185;51.378;-1.342;2023-12-28T11:14:13;99234.77;;;21.35;36.71
67803;BME280;72185;51.378;-1.342;2023-12-28T11:16:38;99250.66;;;21.48;36.58
67803;BME280;72185;51.378;-1.342;2023-12-28T11:19:04;99224.51;;;21.17;36.63
67803;BME280;72185;51.378;-1.342;2023-12-28T11:21:29;99225.57;;;21.37;36.79
67803;BME280;72185;51.378;-1.342;2023-12-28T11:23:54;99211.65;;;21.81;35.93
67803;BME280;72185;51.378;-1.342;2023-12-28T11:26:21;99212.95;;;21.69;36.85
67803;BME280;72185;51.378;-1.342;2023-12-28T11:28:45;99206.38;;;21.16;36.88
67803;BME280;72185;51.378;-1.342;2023-12-28T11:31:10;99215.67;;;21.46;36.98
67803;BME280;72185;51.378;-1.342;2023-12-28T11:33:45;99211.69;;;21.97;36.23
67803;BME280;72185;51.378;-1.342;2023-12-28T11:36:08;99214.32;;;21.50;36.53
67803;BME280;72185;51.378;-1.342;2023-12-28T11:38:27;99199.82;;;21.03;37.06
67803;BME280;72185;51.378;-1.342;2023-12-28T11:40:52;99196.89;;;21.51;36.24
67803;BME280;72185;51.378;-1.342;2023-12-28T11:43:19;99197.12;;;21.12;36.66
67803;BME280;72185;51.378;-1.342;2023-12-28T11:45:47;99198.20;;;20.98;36.83
67803;BME280;72185;51.378;-1.342;2023-12-28T11:48:08;99193.55;;;21.01;36.74
67803;BME280;72185;51.378;-1.342;2023-12-28T11:50:34;99186.73;;;21.38;36.52
67803;BME280;72185;51.378;-1.342;2023-12-28T11:52:59;99189.14;;;21.30;36.22
67803;BME280;72185;51.378;-1.342;2023-12-28T11:55:24;99182.09;;;21.13;36.49
67803;BME280;72185;51.378;-1.342;2023-12-28T11:57:50;99177.89;;;20.85;36.80
67803;BME280;72185;51.378;-1.342;2023-12-28T12:00:16;99181.39;;;21.46;36.42
67803;BME280;72185;51.378;-1.342;2023-12-28T12:02:43;99181.85;;;21.04;36.51
67803;BME280;72185;51.378;-1.342;2023-12-28T12:05:08;99171.05;;;21.28;36.17
67803;BME280;72185;51.378;-1.342;2023-12-28T12:07:31;99189.72;;;21.06;36.53
67803;BME280;72185;51.378;-1.342;2023-12-28T12:09:58;99175.48;;;21.03;36.15
67803;BME280;72185;51.378;-1.342;2023-12-28T12:12:22;99176.63;;;21.38;36.43
67803;BME280;72185;51.378;-1.342;2023-12-28T12:14:48;99163.13;;;21.35;36.42
67803;BME280;72185;51.378;-1.342;2023-12-28T12:17:14;99167.39;;;21.28;36.47
67803;BME280;72185;51.378;-1.342;2023-12-28T12:19:39;99158.58;;;21.32;36.30
67803;BME280;72185;51.378;-1.342;2023-12-28T12:22:04;99162.92;;;21.03;36.34
67803;BME280;72185;51.378;-1.342;2023-12-28T12:24:31;99158.70;;;21.31;36.26
67803;BME280;72185;51.378;-1.342;2023-12-28T12:26:55;99156.03;;;21.14;36.18
67803;BME280;72185;51.378;-1.342;2023-12-28T12:29:21;99170.58;;;21.29;36.25
67803;BME280;72185;51.378;-1.342;2023-12-28T12:31:48;99162.94;;;20.95;36.39
67803;BME280;72185;51.378;-1.342;2023-12-28T12:34:13;99150.55;;;21.07;36.16
67803;BME280;72185;51.378;-1.342;2023-12-28T12:36:37;99159.37;;;20.88;36.11
67803;BME280;72185;51.378;-1.342;2023-12-28T12:39:03;99148.32;;;20.77;36.21